sensor_id;sensor_type;location;lat;lon;timestamp;pressure;altitude;pressure_sealevel;temperature;humidity
73842;BME280;62184;52.006;5.924;2023-01-15T00:01:00;99088.28;;;8.45;100.00
73842;BME280;62184;52.006;5.924;2023-01-15T00:03:28;99085.63;;;8.45;100.00
73842;BME280;62184;52.006;5.924;2023-01-15T00:05:55;99080.41;;;8.42;100.00
73842;BME280;62184;52.006;5.924;2023-01-15T00:08:26;99084.88;;;8.41;100.00
73842;BME280;62184;52.006;5.924;2023-01-15T00:10:52;99079.34;;;8.46;100.00
73842;BME280;62184;52.006;5.924;2023-01-15T00:13:19;99078.28;;;8.50;100.00
73842;BME280;62184;52.006;5.924;2023-01-15T00:15:45;99080.72;;;8.55;100.00
73842;BME280;62184;52.006;5.924;2023-01-15T00:18:14;99083.88;;;8.44;100.00
73842;BME280;62184;52.006;5.924;2023-01-15T00:20:41;99081.28;;;8.42;100.00
73842;BME280;62184;52.006;5.924;2023-01-15T00:23:07;99083.88;;;8.44;100.00
73842;BME280;62184;52.006;5.924;2023-01-15T00:25:33;99082.16;;;8.43;100.00
73842;BME280;62184;52.006;5.924;2023-01-15T00:28:00;99093.38;;;8.49;100.00
73842;BME280;62184;52.006;5.924;2023-01-15T00:30:26;99079.22;;;8.49;100.00
73842;BME280;62184;52.006;5.924;2023-01-15T00:32:53;99086.53;;;8.44;100.00
73842;BME280;62184;52.006;5.924;2023-01-15T00:35:22;99086.31;;;8.48;100.00
73842;BME280;62184;52.006;5.924;2023-01-15T00:37:49;99086.53;;;8.44;100.00
73842;BME280;62184;52.006;5.924;2023-01-15T00:40:18;99085.75;;;8.42;100.00
73842;BME280;62184;52.006;5.924;2023-01-15T00:42:45;99082.28;;;8.40;100.00
73842;BME280;62184;52.006;5.924;2023-01-15T00:45:11;99076.94;;;8.40;100.00
73842;BME280;62184;52.006;5.924;2023-01-15T00:47:39;99091.19;;;8.39;100.00
73842;BME280;62184;52.006;5.924;2023-01-15T00:50:10;99069.97;;;8.37;100.00
73842;BME280;62184;52.006;5.924;2023-01-15T00:52:41;99079.03;;;8.33;100.00
73842;BME280;62184;52.006;5.924;2023-01-15T00:55:08;99079.25;;;8.29;100.00
73842;BME280;62184;52.006;5.924;2023-01-15T00:57:34;99083.59;;;8.30;100.00
73842;BME280;62184;52.006;5.924;2023-01-15T01:00:01;99080.75;;;8.34;100.00
73842;BME280;62184;52.006;5.924;2023-01-15T01:02:27;99087.88;;;8.34;100.00
73842;BME280;62184;52.006;5.924;2023-01-15T01:04:54;99096.78;;;8.33;100.00
73842;BME280;62184;52.006;5.924;2023-01-15T01:07:20;99089.72;;;8.32;100.00
73842;BME280;62184;52.006;5.924;2023-01-15T01:09:49;99084.41;;;8.32;100.00
73842;BME280;62184;52.006;5.924;2023-01-15T01:12:15;99102.22;;;8.30;100.00
73842;BME280;62184;52.006;5.924;2023-01-15T01:14:42;99093.59;;;8.25;100.00
73842;BME280;62184;52.006;5.924;2023-01-15T01:17:08;99075.19;;;8.20;100.00
73842;BME280;62184;52.006;5.924;2023-01-15T01:19:35;99076.97;;;8.20;100.00
73842;BME280;62184;52.006;5.924;2023-01-15T01:22:01;99085.06;;;8.17;100.00
73842;BME280;62184;52.006;5.924;2023-01-15T01:24:28;99082.47;;;8.15;100.00
73842;BME280;62184;52.006;5.924;2023-01-15T01:26:57;99087.00;;;8.13;100.00
73842;BME280;62184;52.006;5.924;2023-01-15T01:29:23;99088.78;;;8.12;100.00
73842;BME280;62184;52.006;5.924;2023-01-15T01:31:50;99103.03;;;8.11;100.00
73842;BME280;62184;52.006;5.924;2023-01-15T01:34:16;99089.06;;;8.06;100.00
73842;BME280;62184;52.006;5.924;2023-01-15T01:36:43;99085.53;;;8.06;100.00
73842;BME280;62184;52.006;5.924;2023-01-15T01:39:13;99092.66;;;8.05;100.00
73842;BME280;62184;52.006;5.924;2023-01-15T01:41:41;99093.66;;;8.03;100.00
73842;BME280;62184;52.006;5.924;2023-01-15T01:47:27;99090.38;;;7.96;100.00
73842;BME280;62184;52.006;5.924;2023-01-15T01:49:58;99083.53;;;7.91;100.00
73842;BME280;62184;52.006;5.924;2023-01-15T01:52:34;99095.91;;;7.92;100.00
73842;BME280;62184;52.006;5.924;2023-01-15T01:55:07;99086.13;;;7.92;100.00
73842;BME280;62184;52.006;5.924;2023-01-15T01:57:36;99103.81;;;7.93;100.00
73842;BME280;62184;52.006;5.924;2023-01-15T02:00:08;99093.97;;;7.95;100.00
73842;BME280;62184;52.006;5.924;2023-01-15T02:02:36;99092.25;;;7.94;100.00
73842;BME280;62184;52.006;5.924;2023-01-15T02:05:04;99091.44;;;7.92;100.00
73842;BME280;62184;52.006;5.924;2023-01-15T02:07:34;99092.44;;;7.90;100.00
73842;BME280;62184;52.006;5.924;2023-01-15T02:10:00;99113.69;;;7.90;100.00
73842;BME280;62184;52.006;5.924;2023-01-15T02:12:30;99111.91;;;7.90;100.00
73842;BME280;62184;52.006;5.924;2023-01-15T02:15:08;99101.38;;;7.87;100.00
73842;BME280;62184;52.006;5.924;2023-01-15T02:17:43;99096.00;;;7.89;100.00
73842;BME280;62184;52.006;5.924;2023-01-15T02:20:28;99091.72;;;7.86;100.00
73842;BME280;62184;52.006;5.924;2023-01-15T02:23:18;99102.25;;;7.88;100.00
73842;BME280;62184;52.006;5.924;2023-01-15T02:26:24;99112.03;;;7.87;100.00
73842;BME280;62184;52.006;5.924;2023-01-15T02:29:12;99104.19;;;7.84;100.00
73842;BME280;62184;52.006;5.924;2023-01-15T02:31:49;99106.03;;;7.82;100.00
73842;BME280;62184;52.006;5.924;2023-01-15T02:34:21;99104.31;;;7.81;100.00
73842;BME280;62184;52.006;5.924;2023-01-15T02:36:57;99108.81;;;7.79;100.00
73842;BME280;62184;52.006;5.924;2023-01-15T02:39:29;99100.78;;;7.81;100.00
73842;BME280;62184;52.006;5.924;2023-01-15T02:42:03;99102.72;;;7.77;100.00
73842;BME280;62184;52.006;5.924;2023-01-15T02:44:36;99094.81;;;7.75;100.00
73842;BME280;62184;52.006;5.924;2023-01-15T02:47:07;99110.16;;;7.69;100.00
73842;BME280;62184;52.006;5.924;2023-01-15T02:49:37;99094.31;;;7.66;100.00
73842;BME280;62184;52.006;5.924;2023-01-15T02:52:13;99105.91;;;7.63;100.00
73842;BME280;62184;52.006;5.924;2023-01-15T02:54:50;99090.13;;;7.60;100.00
73842;BME280;62184;52.006;5.924;2023-01-15T02:57:25;99088.41;;;7.59;100.00
73842;BME280;62184;52.006;5.924;2023-01-15T02:59:57;99095.44;;;7.60;100.00
73842;BME280;62184;52.006;5.924;2023-01-15T03:02:32;99093.66;;;7.61;100.00
73842;BME280;62184;52.006;5.924;2023-01-15T03:05:07;99109.50;;;7.62;100.00
73842;BME280;62184;52.006;5.924;2023-01-15T03:07:43;99103.34;;;7.62;100.00
73842;BME280;62184;52.006;5.924;2023-01-15T03:10:14;99102.34;;;7.64;100.00
73842;BME280;62184;52.006;5.924;2023-01-15T03:12:47;99086.47;;;7.63;100.00
73842;BME280;62184;52.006;5.924;2023-01-15T03:15:21;99076.91;;;7.59;100.00
73842;BME280;62184;52.006;5.924;2023-01-15T03:17:54;99083.94;;;7.60;100.00
73842;BME280;62184;52.006;5.924;2023-01-15T03:20:23;99091.97;;;7.58;100.00
73842;BME280;62184;52.006;5.924;2023-01-15T03:22:55;99083.41;;;7.52;100.00
73842;BME280;62184;52.006;5.924;2023-01-15T03:25:35;99089.75;;;7.48;100.00
73842;BME280;62184;52.006;5.924;2023-01-15T03:28:09;99078.03;;;7.53;100.00
73842;BME280;62184;52.006;5.924;2023-01-15T03:30:39;99090.66;;;7.47;100.00
73842;BME280;62184;52.006;5.924;2023-01-15T03:33:05;99093.22;;;7.50;100.00
73842;BME280;62184;52.006;5.924;2023-01-15T03:35:44;99088.88;;;7.47;100.00
73842;BME280;62184;52.006;5.924;2023-01-15T03:38:14;99079.38;;;7.42;100.00
73842;BME280;62184;52.006;5.924;2023-01-15T03:40:49;99076.06;;;7.36;100.00
73842;BME280;62184;52.006;5.924;2023-01-15T03:43:31;99068.88;;;7.38;100.00
73842;BME280;62184;52.006;5.924;2023-01-15T03:46:13;99079.63;;;7.35;100.00
73842;BME280;62184;52.006;5.924;2023-01-15T03:48:55;99079.25;;;7.45;100.00
73842;BME280;62184;52.006;5.924;2023-01-15T03:51:34;99066.53;;;7.53;100.00
73842;BME280;62184;52.006;5.924;2023-01-15T03:54:09;99072.72;;;7.53;100.00
73842;BME280;62184;52.006;5.924;2023-01-15T03:56:44;99079.81;;;7.53;100.00
73842;BME280;62184;52.006;5.924;2023-01-15T03:59:22;99075.44;;;7.52;100.00
73842;BME280;62184;52.006;5.924;2023-01-15T04:01:55;99089.63;;;7.51;100.00
73842;BME280;62184;52.006;5.924;2023-01-15T04:04:25;99066.53;;;7.53;100.00
73842;BME280;62184;52.006;5.924;2023-01-15T04:06:53;99070.22;;;7.49;100.00
73842;BME280;62184;52.006;5.924;2023-01-15T04:09:21;99066.53;;;7.53;100.00
73842;BME280;62184;52.006;5.924;2023-01-15T04:11:48;99068.38;;;7.51;100.00
73842;BME280;62184;52.006;5.924;2023-01-15T04:14:15;99070.13;;;7.52;100.00
73842;BME280;62184;52.006;5.924;2023-01-15T04:16:44;99069.97;;;7.55;100.00
73842;BME280;62184;52.006;5.924;2023-01-15T04:19:10;99068.13;;;7.57;100.00
73842;BME280;62184;52.006;5.924;2023-01-15T04:21:37;99056.69;;;7.55;100.00
73842;BME280;62184;52.006;5.924;2023-01-15T04:24:03;99064.75;;;7.53;100.00
73842;BME280;62184;52.006;5.924;2023-01-15T04:26:30;99071.84;;;7.53;100.00
73842;BME280;62184;52.006;5.924;2023-01-15T04:28:57;99069.19;;;7.53;100.00
73842;BME280;62184;52.006;5.924;2023-01-15T04:31:23;99069.25;;;7.51;100.00
73842;BME280;62184;52.006;5.924;2023-01-15T04:33:52;99071.03;;;7.51;100.00
73842;BME280;62184;52.006;5.924;2023-01-15T04:36:18;99069.34;;;7.48;100.00
73842;BME280;62184;52.006;5.924;2023-01-15T04:38:45;99066.75;;;7.47;100.00
73842;BME280;62184;52.006;5.924;2023-01-15T04:41:11;99081.84;;;7.46;100.00
73842;BME280;62184;52.006;5.924;2023-01-15T04:43:38;99079.94;;;7.50;100.00
73842;BME280;62184;52.006;5.924;2023-01-15T04:46:04;99073.75;;;7.49;100.00
73842;BME280;62184;52.006;5.924;2023-01-15T04:48:31;99077.28;;;7.50;100.00
73842;BME280;62184;52.006;5.924;2023-01-15T04:51:04;99076.41;;;7.49;100.00
73842;BME280;62184;52.006;5.924;2023-01-15T04:53:32;99076.53;;;7.46;100.00
73842;BME280;62184;52.006;5.924;2023-01-15T04:55:59;99072.16;;;7.45;100.00
73842;BME280;62184;52.006;5.924;2023-01-15T04:58:26;99072.31;;;7.41;100.00
73842;BME280;62184;52.006;5.924;2023-01-15T05:00:53;99079.63;;;7.35;100.00
73842;BME280;62184;52.006;5.924;2023-01-15T05:03:19;99077.13;;;7.31;100.00
73842;BME280;62184;52.006;5.924;2023-01-15T05:05:46;99078.16;;;7.27;100.00
73842;BME280;62184;52.006;5.924;2023-01-15T05:08:15;99076.38;;;7.27;100.00
73842;BME280;62184;52.006;5.924;2023-01-15T05:10:41;99074.75;;;7.23;100.00
73842;BME280;62184;52.006;5.924;2023-01-15T05:13:08;99086.31;;;7.22;100.00
73842;BME280;62184;52.006;5.924;2023-01-15T05:15:35;99078.28;;;7.24;100.00
73842;BME280;62184;52.006;5.924;2023-01-15T05:18:01;99075.56;;;7.25;100.00
73842;BME280;62184;52.006;5.924;2023-01-15T05:20:27;99080.81;;;7.27;100.00
73842;BME280;62184;52.006;5.924;2023-01-15T05:22:54;99079.97;;;7.26;100.00
73842;BME280;62184;52.006;5.924;2023-01-15T05:25:23;99071.94;;;7.28;100.00
73842;BME280;62184;52.006;5.924;2023-01-15T05:27:49;99071.84;;;7.29;100.00
73842;BME280;62184;52.006;5.924;2023-01-15T05:30:16;99067.38;;;7.31;100.00
73842;BME280;62184;52.006;5.924;2023-01-15T05:32:43;99053.13;;;7.34;100.00
73842;BME280;62184;52.006;5.924;2023-01-15T05:35:09;99064.75;;;7.30;100.00
73842;BME280;62184;52.006;5.924;2023-01-15T05:37:36;99063.88;;;7.29;100.00
73842;BME280;62184;52.006;5.924;2023-01-15T05:40:03;99060.31;;;7.30;100.00
73842;BME280;62184;52.006;5.924;2023-01-15T05:42:33;99064.03;;;7.26;100.00
73842;BME280;62184;52.006;5.924;2023-01-15T05:44:59;99050.81;;;7.25;100.00
73842;BME280;62184;52.006;5.924;2023-01-15T05:47:26;99057.84;;;7.26;100.00
73842;BME280;62184;52.006;5.924;2023-01-15T05:49:52;99051.56;;;7.28;100.00
73842;BME280;62184;52.006;5.924;2023-01-15T05:52:19;99053.13;;;7.34;100.00
73842;BME280;62184;52.006;5.924;2023-01-15T05:54:47;99047.66;;;7.37;100.00
73842;BME280;62184;52.006;5.924;2023-01-15T05:57:14;99058.44;;;7.34;100.00
73842;BME280;62184;52.006;5.924;2023-01-15T05:59:44;99061.22;;;7.31;100.00
73842;BME280;62184;52.006;5.924;2023-01-15T06:02:10;99054.13;;;7.30;100.00
73842;BME280;62184;52.006;5.924;2023-01-15T06:04:36;99057.84;;;7.26;100.00
73842;BME280;62184;52.006;5.924;2023-01-15T06:07:04;99062.28;;;7.25;100.00
73842;BME280;62184;52.006;5.924;2023-01-15T06:09:30;99057.84;;;7.26;100.00
73842;BME280;62184;52.006;5.924;2023-01-15T06:11:56;99058.72;;;7.26;100.00
73842;BME280;62184;52.006;5.924;2023-01-15T06:14:23;99059.59;;;7.27;100.00
73842;BME280;62184;52.006;5.924;2023-01-15T06:16:52;99056.88;;;7.28;100.00
73842;BME280;62184;52.006;5.924;2023-01-15T06:19:19;99054.31;;;7.25;100.00
73842;BME280;62184;52.006;5.924;2023-01-15T06:21:45;99060.56;;;7.24;100.00
73842;BME280;62184;52.006;5.924;2023-01-15T06:24:12;99061.47;;;7.23;100.00
73842;BME280;62184;52.006;5.924;2023-01-15T06:26:39;99064.38;;;7.17;100.00
73842;BME280;62184;52.006;5.924;2023-01-15T06:29:05;99068.94;;;7.14;100.00
73842;BME280;62184;52.006;5.924;2023-01-15T06:31:32;99070.06;;;7.08;100.00
73842;BME280;62184;52.006;5.924;2023-01-15T06:34:01;99063.00;;;7.07;100.00
73842;BME280;62184;52.006;5.924;2023-01-15T06:36:28;99055.09;;;7.06;100.00
73842;BME280;62184;52.006;5.924;2023-01-15T06:38:54;99069.44;;;7.02;100.00
73842;BME280;62184;52.006;5.924;2023-01-15T06:41:23;99071.28;;;6.99;100.00
73842;BME280;62184;52.006;5.924;2023-01-15T06:43:50;99057.34;;;6.94;100.00
73842;BME280;62184;52.006;5.924;2023-01-15T06:46:17;99073.97;;;6.98;100.00
73842;BME280;62184;52.006;5.924;2023-01-15T06:48:43;99069.66;;;6.95;100.00
73842;BME280;62184;52.006;5.924;2023-01-15T06:51:12;99069.59;;;6.97;100.00
73842;BME280;62184;52.006;5.924;2023-01-15T06:53:38;99065.97;;;6.99;100.00
73842;BME280;62184;52.006;5.924;2023-01-15T06:56:05;99066.84;;;7.00;100.00
73842;BME280;62184;52.006;5.924;2023-01-15T06:58:32;99080.72;;;7.07;100.00
73842;BME280;62184;52.006;5.924;2023-01-15T07:00:59;99067.34;;;7.10;100.00
73842;BME280;62184;52.006;5.924;2023-01-15T07:03:25;99082.16;;;7.15;100.00
73842;BME280;62184;52.006;5.924;2023-01-15T07:05:51;99084.00;;;7.13;100.00
73842;BME280;62184;52.006;5.924;2023-01-15T07:08:21;99095.38;;;7.17;100.00
73842;BME280;62184;52.006;5.924;2023-01-15T07:10:47;99085.06;;;7.09;100.00
73842;BME280;62184;52.006;5.924;2023-01-15T07:13:13;99091.44;;;7.04;100.00
73842;BME280;62184;52.006;5.924;2023-01-15T07:15:40;99088.38;;;6.92;100.00
73842;BME280;62184;52.006;5.924;2023-01-15T07:18:06;99088.59;;;6.86;100.00
73842;BME280;62184;52.006;5.924;2023-01-15T07:20:33;99094.13;;;6.80;100.00
73842;BME280;62184;52.006;5.924;2023-01-15T07:22:59;99089.00;;;6.76;100.00
73842;BME280;62184;52.006;5.924;2023-01-15T07:25:28;99089.91;;;6.75;100.00
73842;BME280;62184;52.006;5.924;2023-01-15T07:27:54;99087.38;;;6.72;100.00
73842;BME280;62184;52.006;5.924;2023-01-15T07:30:21;99090.94;;;6.71;100.00
73842;BME280;62184;52.006;5.924;2023-01-15T07:32:47;99081.19;;;6.71;100.00
73842;BME280;62184;52.006;5.924;2023-01-15T07:35:14;99082.97;;;6.71;100.00
73842;BME280;62184;52.006;5.924;2023-01-15T07:37:40;99078.72;;;6.67;100.00
73842;BME280;62184;52.006;5.924;2023-01-15T07:40:08;99084.13;;;6.63;100.00
73842;BME280;62184;52.006;5.924;2023-01-15T07:42:38;99077.19;;;6.61;100.00
73842;BME280;62184;52.006;5.924;2023-01-15T07:45:07;99062.09;;;6.61;100.00
73842;BME280;62184;52.006;5.924;2023-01-15T07:47:34;99080.66;;;6.61;100.00
73842;BME280;62184;52.006;5.924;2023-01-15T07:50:01;99076.38;;;6.59;100.00
73842;BME280;62184;52.006;5.924;2023-01-15T07:52:29;99079.13;;;6.56;100.00
73842;BME280;62184;52.006;5.924;2023-01-15T07:54:55;99071.28;;;6.53;100.00
73842;BME280;62184;52.006;5.924;2023-01-15T07:57:22;99081.09;;;6.51;100.00
73842;BME280;62184;52.006;5.924;2023-01-15T07:59:51;99080.97;;;6.54;100.00
73842;BME280;62184;52.006;5.924;2023-01-15T08:02:18;99091.66;;;6.52;100.00
73842;BME280;62184;52.006;5.924;2023-01-15T08:04:44;99097.88;;;6.51;100.00
73842;BME280;62184;52.006;5.924;2023-01-15T08:07:11;99097.72;;;6.54;100.00
73842;BME280;62184;52.006;5.924;2023-01-15T08:09:37;99099.53;;;6.54;100.00
73842;BME280;62184;52.006;5.924;2023-01-15T08:12:04;99092.50;;;6.53;100.00
73842;BME280;62184;52.006;5.924;2023-01-15T08:14:30;99093.34;;;6.53;100.00
73842;BME280;62184;52.006;5.924;2023-01-15T08:16:59;99073.00;;;6.54;100.00
73842;BME280;62184;52.006;5.924;2023-01-15T08:19:26;99084.59;;;6.51;100.00
73842;BME280;62184;52.006;5.924;2023-01-15T08:21:52;99068.69;;;6.51;100.00
73842;BME280;62184;52.006;5.924;2023-01-15T08:24:19;99073.22;;;6.48;100.00
73842;BME280;62184;52.006;5.924;2023-01-15T08:26:45;99077.56;;;6.50;100.00
73842;BME280;62184;52.006;5.924;2023-01-15T08:29:12;99078.31;;;6.54;100.00
73842;BME280;62184;52.006;5.924;2023-01-15T08:31:38;99072.03;;;6.56;100.00
73842;BME280;62184;52.006;5.924;2023-01-15T08:34:07;99080.00;;;6.56;100.00
73842;BME280;62184;52.006;5.924;2023-01-15T08:36:34;99082.63;;;6.56;100.00
73842;BME280;62184;52.006;5.924;2023-01-15T08:39:00;99083.47;;;6.58;100.00
73842;BME280;62184;52.006;5.924;2023-01-15T08:41:27;99086.16;;;6.57;100.00
73842;BME280;62184;52.006;5.924;2023-01-15T08:43:54;99081.66;;;6.59;100.00
73842;BME280;62184;52.006;5.924;2023-01-15T08:46:20;99077.22;;;6.59;100.00
73842;BME280;62184;52.006;5.924;2023-01-15T08:48:47;99083.31;;;6.61;100.00
73842;BME280;62184;52.006;5.924;2023-01-15T08:51:16;99079.59;;;6.67;100.00
73842;BME280;62184;52.006;5.924;2023-01-15T08:53:42;99081.16;;;6.73;100.00
73842;BME280;62184;52.006;5.924;2023-01-15T08:56:11;99077.91;;;6.65;100.00
73842;BME280;62184;52.006;5.924;2023-01-15T08:58:38;99084.13;;;6.63;100.00
73842;BME280;62184;52.006;5.924;2023-01-15T09:01:05;99074.53;;;6.61;100.00
73842;BME280;62184;52.006;5.924;2023-01-15T09:03:34;99078.09;;;6.60;100.00
73842;BME280;62184;52.006;5.924;2023-01-15T09:06:02;99085.25;;;6.58;100.00
73842;BME280;62184;52.006;5.924;2023-01-15T09:08:32;99081.63;;;6.60;100.00
73842;BME280;62184;52.006;5.924;2023-01-15T09:10:59;99085.00;;;6.64;100.00
73842;BME280;62184;52.006;5.924;2023-01-15T09:13:27;99081.28;;;6.70;100.00
73842;BME280;62184;52.006;5.924;2023-01-15T09:15:58;99076.91;;;6.69;100.00
73842;BME280;62184;52.006;5.924;2023-01-15T09:18:25;99073.09;;;6.76;100.00
73842;BME280;62184;52.006;5.924;2023-01-15T09:20:52;99079.22;;;6.78;100.00
73842;BME280;62184;52.006;5.924;2023-01-15T09:23:18;99083.50;;;6.80;100.00
73842;BME280;62184;52.006;5.924;2023-01-15T09:25:53;99066.31;;;6.90;100.00
73842;BME280;62184;52.006;5.924;2023-01-15T09:28:21;99085.88;;;6.88;100.00
73842;BME280;62184;52.006;5.924;2023-01-15T09:30:47;99081.47;;;6.87;100.00
73842;BME280;62184;52.006;5.924;2023-01-15T09:33:14;99093.16;;;6.83;100.00
73842;BME280;62184;52.006;5.924;2023-01-15T09:35:41;99091.25;;;6.86;100.00
73842;BME280;62184;52.006;5.924;2023-01-15T09:38:10;99093.91;;;6.86;100.00
73842;BME280;62184;52.006;5.924;2023-01-15T09:40:45;99080.41;;;6.92;100.00
73842;BME280;62184;52.006;5.924;2023-01-15T09:43:26;99077.50;;;6.98;100.00
73842;BME280;62184;52.006;5.924;2023-01-15T09:46:08;99089.75;;;7.03;100.00
73842;BME280;62184;52.006;5.924;2023-01-15T09:48:46;99087.81;;;7.06;100.00
73842;BME280;62184;52.006;5.924;2023-01-15T09:51:26;99084.16;;;7.10;100.00
73842;BME280;62184;52.006;5.924;2023-01-15T09:54:19;99103.44;;;7.14;100.00
73842;BME280;62184;52.006;5.924;2023-01-15T09:57:02;99081.34;;;7.13;99.93
73842;BME280;62184;52.006;5.924;2023-01-15T09:59:38;99090.03;;;7.18;100.00
73842;BME280;62184;52.006;5.924;2023-01-15T10:02:16;99094.16;;;7.25;100.00
73842;BME280;62184;52.006;5.924;2023-01-15T10:04:53;99096.53;;;7.33;100.00
73842;BME280;62184;52.006;5.924;2023-01-15T10:07:29;99102.50;;;7.61;100.00
73842;BME280;62184;52.006;5.924;2023-01-15T10:10:04;99109.63;;;7.81;100.00
73842;BME280;62184;52.006;5.924;2023-01-15T10:12:37;99103.66;;;7.96;100.00
73842;BME280;62184;52.006;5.924;2023-01-15T10:15:16;99086.78;;;7.97;100.00
73842;BME280;62184;52.006;5.924;2023-01-15T10:17:50;99102.88;;;7.94;100.00
73842;BME280;62184;52.006;5.924;2023-01-15T10:20:32;99089.91;;;7.87;100.00
73842;BME280;62184;52.006;5.924;2023-01-15T10:23:26;99103.31;;;7.84;100.00
73842;BME280;62184;52.006;5.924;2023-01-15T10:26:03;99092.56;;;7.87;100.00
73842;BME280;62184;52.006;5.924;2023-01-15T10:28:50;99085.66;;;7.83;99.53
73842;BME280;62184;52.006;5.924;2023-01-15T10:31:40;99086.50;;;7.83;100.00
73842;BME280;62184;52.006;5.924;2023-01-15T10:37:33;99090.63;;;7.90;99.70
73842;BME280;62184;52.006;5.924;2023-01-15T10:40:15;99092.56;;;7.87;99.24
73842;BME280;62184;52.006;5.924;2023-01-15T10:42:57;99105.88;;;7.87;100.00
73842;BME280;62184;52.006;5.924;2023-01-15T10:45:34;99112.88;;;7.88;100.00
73842;BME280;62184;52.006;5.924;2023-01-15T10:48:11;99099.31;;;7.95;100.00
73842;BME280;62184;52.006;5.924;2023-01-15T10:50:52;99093.66;;;8.03;100.00
73842;BME280;62184;52.006;5.924;2023-01-15T10:53:29;99103.28;;;8.05;100.00
73842;BME280;62184;52.006;5.924;2023-01-15T10:56:04;99105.59;;;8.13;100.00
73842;BME280;62184;52.006;5.924;2023-01-15T10:58:39;99092.41;;;8.11;99.17
73842;BME280;62184;52.006;5.924;2023-01-15T11:01:15;99102.78;;;8.18;100.00
73842;BME280;62184;52.006;5.924;2023-01-15T11:03:46;99103.63;;;8.18;99.07
73842;BME280;62184;52.006;5.924;2023-01-15T11:06:13;99101.78;;;8.20;99.63
73842;BME280;62184;52.006;5.924;2023-01-15T11:08:45;99101.03;;;8.17;98.13
73842;BME280;62184;52.006;5.924;2023-01-15T11:11:20;99088.47;;;8.20;98.11
73842;BME280;62184;52.006;5.924;2023-01-15T11:13:52;99104.28;;;8.23;99.62
73842;BME280;62184;52.006;5.924;2023-01-15T11:16:24;99093.59;;;8.25;96.57
73842;BME280;62184;52.006;5.924;2023-01-15T11:18:54;99092.44;;;8.30;97.00
73842;BME280;62184;52.006;5.924;2023-01-15T11:21:22;99098.84;;;8.26;96.62
73842;BME280;62184;52.006;5.924;2023-01-15T11:23:51;99087.81;;;8.35;98.01
73842;BME280;62184;52.006;5.924;2023-01-15T11:26:21;99082.09;;;8.44;99.35
73842;BME280;62184;52.006;5.924;2023-01-15T11:28:51;99078.00;;;8.56;99.99
73842;BME280;62184;52.006;5.924;2023-01-15T11:31:18;99093.25;;;8.52;98.12
73842;BME280;62184;52.006;5.924;2023-01-15T11:33:59;99084.34;;;8.54;99.57
73842;BME280;62184;52.006;5.924;2023-01-15T11:36:28;99086.66;;;8.61;100.00
73842;BME280;62184;52.006;5.924;2023-01-15T11:38:55;99096.03;;;8.70;100.00
73842;BME280;62184;52.006;5.924;2023-01-15T11:41:27;99103.28;;;8.66;99.12
73842;BME280;62184;52.006;5.924;2023-01-15T11:43:56;99085.63;;;8.64;98.39
73842;BME280;62184;52.006;5.924;2023-01-15T11:46:25;99105.47;;;8.57;96.99
73842;BME280;62184;52.006;5.924;2023-01-15T11:48:54;99071.97;;;8.52;97.66
73842;BME280;62184;52.006;5.924;2023-01-15T11:51:26;99092.78;;;8.43;98.18
73842;BME280;62184;52.006;5.924;2023-01-15T11:53:58;99092.91;;;8.40;98.75
73842;BME280;62184;52.006;5.924;2023-01-15T11:56:30;99085.00;;;8.38;97.73
73842;BME280;62184;52.006;5.924;2023-01-15T11:59:02;99085.75;;;8.42;99.82
73842;BME280;62184;52.006;5.924;2023-01-15T12:01:37;99072.72;;;8.36;98.28
73842;BME280;62184;52.006;5.924;2023-01-15T12:04:25;99091.72;;;8.27;99.06
73842;BME280;62184;52.006;5.924;2023-01-15T12:07:03;99095.50;;;8.21;100.00
73842;BME280;62184;52.006;5.924;2023-01-15T12:09:42;99096.63;;;8.16;100.00
73842;BME280;62184;52.006;5.924;2023-01-15T12:12:29;99102.78;;;7.96;99.88
73842;BME280;62184;52.006;5.924;2023-01-15T12:15:30;99117.28;;;7.89;100.00
73842;BME280;62184;52.006;5.924;2023-01-15T12:18:14;99105.44;;;7.96;100.00
73842;BME280;62184;52.006;5.924;2023-01-15T12:21:19;99099.75;;;8.05;100.00
73842;BME280;62184;52.006;5.924;2023-01-15T12:24:22;99079.75;;;8.17;100.00
73842;BME280;62184;52.006;5.924;2023-01-15T12:27:25;99094.25;;;8.09;100.00
73842;BME280;62184;52.006;5.924;2023-01-15T12:30:13;99084.09;;;8.19;99.84
73842;BME280;62184;52.006;5.924;2023-01-15T12:32:51;99076.81;;;8.23;100.00
73842;BME280;62184;52.006;5.924;2023-01-15T12:35:28;99060.75;;;8.26;99.32
73842;BME280;62184;52.006;5.924;2023-01-15T12:37:59;99070.63;;;8.22;98.62
73842;BME280;62184;52.006;5.924;2023-01-15T12:40:42;99066.47;;;8.17;99.57
73842;BME280;62184;52.006;5.924;2023-01-15T12:43:18;99093.44;;;8.07;99.79
73842;BME280;62184;52.006;5.924;2023-01-15T12:45:50;99080.69;;;8.16;99.15
73842;BME280;62184;52.006;5.924;2023-01-15T12:48:26;99075.63;;;8.30;99.85
73842;BME280;62184;52.006;5.924;2023-01-15T12:51:02;99079.97;;;8.32;99.37
73842;BME280;62184;52.006;5.924;2023-01-15T12:53:36;99056.66;;;8.37;99.14
73842;BME280;62184;52.006;5.924;2023-01-15T12:56:17;99078.09;;;8.34;98.25
73842;BME280;62184;52.006;5.924;2023-01-15T12:58:51;99081.09;;;8.27;97.97
73842;BME280;62184;52.006;5.924;2023-01-15T13:01:25;99070.84;;;8.18;98.19
73842;BME280;62184;52.006;5.924;2023-01-15T13:04:07;99062.06;;;8.16;97.48
73842;BME280;62184;52.006;5.924;2023-01-15T13:06:44;99060.63;;;8.08;97.52
73842;BME280;62184;52.006;5.924;2023-01-15T13:09:27;99068.00;;;8.02;97.14
73842;BME280;62184;52.006;5.924;2023-01-15T13:12:10;99068.97;;;7.99;97.74
73842;BME280;62184;52.006;5.924;2023-01-15T13:14:38;99052.56;;;7.90;98.39
73842;BME280;62184;52.006;5.924;2023-01-15T13:17:11;99058.84;;;7.87;97.11
73842;BME280;62184;52.006;5.924;2023-01-15T13:20:02;99070.84;;;7.97;97.98
73842;BME280;62184;52.006;5.924;2023-01-15T13:22:49;99062.47;;;8.06;97.50
73842;BME280;62184;52.006;5.924;2023-01-15T13:25:41;99079.88;;;8.13;97.68
73842;BME280;62184;52.006;5.924;2023-01-15T13:28:36;99089.47;;;8.18;97.94
73842;BME280;62184;52.006;5.924;2023-01-15T13:31:30;99086.53;;;8.24;98.07